Map

Track Data

SID SEASON NUMBER BASIN SUBBASIN NAME ISO_TIME NATURE LAT LON WMO_WIND WMO_PRES WMO_AGENCY TRACK_TYPE DIST2LAND LANDFALL IFLAG USA_AGENCY USA_ATCF_ID USA_LAT USA_LON USA_RECORD USA_STATUS USA_WIND USA_PRES USA_SSHS USA_R34_NE USA_R34_SE USA_R34_SW USA_R34_NW USA_R50_NE USA_R50_SE USA_R50_SW USA_R50_NW USA_R64_NE USA_R64_SE USA_R64_SW USA_R64_NW USA_POCI USA_ROCI USA_RMW USA_EYE TOKYO_LAT TOKYO_LON TOKYO_GRADE TOKYO_WIND TOKYO_PRES TOKYO_R50_DIR TOKYO_R50_LONG TOKYO_R50_SHORT TOKYO_R30_DIR TOKYO_R30_LONG TOKYO_R30_SHORT TOKYO_LAND CMA_LAT CMA_LON CMA_CAT CMA_WIND CMA_PRES HKO_LAT HKO_LON HKO_CAT HKO_WIND HKO_PRES NEWDELHI_LAT NEWDELHI_LON NEWDELHI_GRADE NEWDELHI_WIND NEWDELHI_PRES NEWDELHI_CI NEWDELHI_DP NEWDELHI_POCI REUNION_LAT REUNION_LON REUNION_TYPE REUNION_WIND REUNION_PRES REUNION_TNUM REUNION_CI REUNION_RMW REUNION_R34_NE REUNION_R34_SE REUNION_R34_SW REUNION_R34_NW REUNION_R50_NE REUNION_R50_SE REUNION_R50_SW REUNION_R50_NW REUNION_R64_NE REUNION_R64_SE REUNION_R64_SW REUNION_R64_NW BOM_LAT BOM_LON BOM_TYPE BOM_WIND BOM_PRES BOM_TNUM BOM_CI BOM_RMW BOM_R34_NE BOM_R34_SE BOM_R34_SW BOM_R34_NW BOM_R50_NE BOM_R50_SE BOM_R50_SW BOM_R50_NW BOM_R64_NE BOM_R64_SE BOM_R64_SW BOM_R64_NW BOM_ROCI BOM_POCI BOM_EYE BOM_POS_METHOD BOM_PRES_METHOD NADI_LAT NADI_LON NADI_CAT NADI_WIND NADI_PRES WELLINGTON_LAT WELLINGTON_LON WELLINGTON_WIND WELLINGTON_PRES DS824_LAT DS824_LON DS824_STAGE DS824_WIND DS824_PRES TD9636_LAT TD9636_LON TD9636_STAGE TD9636_WIND TD9636_PRES TD9635_LAT TD9635_LON TD9635_WIND TD9635_PRES TD9635_ROCI NEUMANN_LAT NEUMANN_LON NEUMANN_CLASS NEUMANN_WIND NEUMANN_PRES MLC_LAT MLC_LON MLC_CLASS MLC_WIND MLC_PRES USA_GUST BOM_GUST BOM_GUST_PER REUNION_GUST REUNION_GUST_PER USA_SEAHGT USA_SEARAD_NE USA_SEARAD_SE USA_SEARAD_SW USA_SEARAD_NW STORM_SPEED STORM_DIR
1993215N08154 1993 47 WP MM STEVE 1993-08-03 00:00:00 NR 8.00000 154.300 main 1257 1257 O_____________ jtwc_wp WP141993 8.00000 154.300 10 -1 4 0
1993215N08154 1993 47 WP MM STEVE 1993-08-03 03:00:00 NR 8.21000 154.280 main 1278 1278 P_____________ WP141993 8.21000 154.280 10 -1 4 0
1993215N08154 1993 47 WP MM STEVE 1993-08-03 06:00:00 NR 8.40000 154.300 main 1299 1299 O_____________ jtwc_wp WP141993 8.40000 154.300 10 -1 4 17
1993215N08154 1993 47 WP MM STEVE 1993-08-03 09:00:00 NR 8.55750 154.385 main 1324 1324 P_____________ WP141993 8.55750 154.385 10 -1 4 33
1993215N08154 1993 47 WP MM STEVE 1993-08-03 12:00:00 NR 8.70000 154.500 main 1338 1338 O_____________ jtwc_wp WP141993 8.70000 154.500 10 -1 4 37
1993215N08154 1993 47 WP MM STEVE 1993-08-03 15:00:00 NR 8.84250 154.600 main 1352 1352 P_____________ WP141993 8.84250 154.600 10 -1 4 33
1993215N08154 1993 47 WP MM STEVE 1993-08-03 18:00:00 NR 9.00000 154.700 main 1377 1377 O_____________ jtwc_wp WP141993 9.00000 154.700 10 -1 4 31
1993215N08154 1993 47 WP MM STEVE 1993-08-03 21:00:00 NR 9.18500 154.807 main 1401 1401 P_____________ WP141993 9.18500 154.807 12 -1 4 26
1993215N08154 1993 47 WP MM STEVE 1993-08-04 00:00:00 NR 9.40000 154.900 main 1426 1426 O_____________ jtwc_wp WP141993 9.40000 154.900 15 -1 5 20
1993215N08154 1993 47 WP MM STEVE 1993-08-04 03:00:00 NR 9.64250 154.972 main 1451 1451 P_____________ WP141993 9.64250 154.972 15 -1 5 11
1993215N08154 1993 47 WP MM STEVE 1993-08-04 06:00:00 NR 9.90000 155.000 main 1483 1483 O_____________ jtwc_wp WP141993 9.90000 155.000 15 -1 5 0
1993215N08154 1993 47 WP MM STEVE 1993-08-04 09:00:00 NR 10.1575 154.987 main 1515 1515 P_____________ WP141993 10.1575 154.987 15 -1 5 349
1993215N08154 1993 47 WP MM STEVE 1993-08-04 12:00:00 NR 10.4000 154.900 main 1533 1533 O_____________ jtwc_wp WP141993 10.4000 154.900 15 -1 5 330
1993215N08154 1993 47 WP MM STEVE 1993-08-04 15:00:00 NR 10.6075 154.723 main 1548 1548 P_____________ WP141993 10.6075 154.723 15 -1 6 315
1993215N08154 1993 47 WP MM STEVE 1993-08-04 18:00:00 NR 10.8000 154.500 main 1564 1564 O_____________ jtwc_wp WP141993 10.8000 154.500 15 -1 6 314
1993215N08154 1993 47 WP MM STEVE 1993-08-04 21:00:00 NR 11.0000 154.307 main 1580 1580 P_____________ WP141993 11.0000 154.307 15 -1 6 316
1993215N08154 1993 47 WP MM STEVE 1993-08-05 00:00:00 NR 11.2000 154.100 main 1597 1597 O_____________ jtwc_wp WP141993 11.2000 154.100 15 -1 6 312
1993215N08154 1993 47 WP MM STEVE 1993-08-05 03:00:00 NR 11.3925 153.865 main 1614 1612 P_____________ WP141993 11.3925 153.865 17 -1 6 309
1993215N08154 1993 47 WP MM STEVE 1993-08-05 06:00:00 NR 11.6000 153.600 main 1629 1629 O_____________ jtwc_wp WP141993 11.6000 153.600 20 -1 7 310
1993215N08154 1993 47 WP MM STEVE 1993-08-05 09:00:00 NR 11.8500 153.300 main 1657 1653 P_____________ WP141993 11.8500 153.300 22 -1 6 303
1993215N08154 1993 47 WP MM STEVE 1993-08-05 12:00:00 NR 11.9400 153.060 main 1653 1652 O__O__________ jtwc_wp WP141993 12.1000 153.000 25 -1 11.3000 153.300 TD 25 1005 5 300
1993215N08154 1993 47 WP MM STEVE 1993-08-05 15:00:00 NR 12.1041 152.851 main 1672 1671 P__P__________ WP141993 12.3075 152.742 25 -1 11.6975 153.068 TD 25 1005 6 309
1993215N08154 1993 47 WP MM STEVE 1993-08-05 18:00:00 TS 12.3000 152.600 1008 tokyo main 1691 1689 OOOO__________ jtwc_wp WP141993 12.5000 152.500 25 -1 12.2000 152.500 2 1008 0 0 0 12.2000 152.500 0 19 1008 12.1000 152.800 TD 25 1005 7 309
1993215N08154 1993 47 WP MM STEVE 1993-08-05 21:00:00 TS 12.5100 152.332 main 1710 1710 PPPP__________ WP141993 12.6925 152.257 25 -1 12.3300 152.268 2 1008 0 0 12.3300 152.268 0 19 1008 12.5075 152.472 TD 25 1005 7 308
1993215N08154 1993 47 WP MM STEVE 1993-08-06 00:00:00 TS 12.7286 152.029 1008 tokyo main 1729 1729 OOOO__________ jtwc_wp WP141993 12.9000 152.000 25 -1 12.5000 152.000 2 1008 0 0 0 12.5000 152.000 0 19 1008 12.9000 152.100 TD 25 1005 8 307
1993215N08154 1993 47 WP MM STEVE 1993-08-06 03:00:00 TS 12.9731 151.694 main 1757 1754 PPPP__________ WP141993 13.1425 151.715 25 -1 12.7350 151.673 2 1007 0 0 12.7350 151.673 0 21 1007 13.2799 151.715 TD 25 1005 9 307
1993215N08154 1993 47 WP MM STEVE 1993-08-06 06:00:00 TS 13.2500 151.325 1006 tokyo main 1778 1767 OOOO__________ jtwc_wp WP141993 13.4000 151.400 25 -1 13.0000 151.300 2 1006 0 0 0 13.0000 151.300 1 23 1006 13.6000 151.300 TD 25 1005 9 306
1993215N08154 1993 47 WP MM STEVE 1993-08-06 09:00:00 TS 13.5062 150.932 main 1789 1789 PPPP__________ WP141993 13.6574 151.065 27 -1 13.2650 150.908 2 1006 0 0 13.2650 150.908 1 23 1006 13.8375 150.850 TD 25 1005 9 301
1993215N08154 1993 47 WP MM STEVE 1993-08-06 12:00:00 TS 13.7250 150.525 1006 tokyo main 1802 1802 OOOO__________ jtwc_wp WP141993 13.9000 150.700 30 -1 13.5000 150.500 2 1006 0 0 0 13.5000 150.500 1 23 1006 14.0000 150.400 TD 25 1005 9 296
1993215N08154 1993 47 WP MM STEVE 1993-08-06 15:00:00 TS 13.8862 150.119 main 1817 1813 PPPP__________ WP141993 14.1150 150.307 30 -1 13.6575 150.092 2 1006 0 0 13.6575 150.092 1 23 1006 14.1149 149.985 TD 25 1005 8 291
1993215N08154 1993 47 WP MM STEVE 1993-08-06 18:00:00 TS 14.0250 149.725 1006 tokyo main 1821 1821 OOOO__________ jtwc_wp WP141993 14.3000 149.900 30 -1 13.8000 149.700 2 1006 0 0 0 13.8000 149.700 1 23 1006 14.2000 149.600 TD 25 1005 8 292
1993215N08154 1993 47 WP MM STEVE 1993-08-06 21:00:00 TS 14.1837 149.361 main 1839 1836 PPPP__________ WP141993 14.4724 149.500 32 -1 13.9849 149.350 2 1005 0 0 13.9849 149.350 1 26 1005 14.2924 149.242 TD 27 1002 8 295
1993215N08154 1993 47 WP MM STEVE 1993-08-07 00:00:00 TS 14.3500 149.000 1004 tokyo main 1856 1854 OOOO__________ jtwc_wp WP141993 14.6000 149.100 35 0 14.2000 149.000 2 1004 0 0 0 14.2000 149.000 1 29 1004 14.4000 148.900 TD 30 1000 8 295
1993215N08154 1993 47 WP MM STEVE 1993-08-07 03:00:00 TS 14.5193 148.620 main 1864 1864 PPPP__________ WP141993 14.6499 148.707 37 0 14.4425 148.607 2 1003 0 0 14.4425 148.607 1 29 1003 14.5424 148.557 TD 30 1000 8 295
1993215N08154 1993 47 WP MM STEVE 1993-08-07 06:00:00 TS 14.7000 148.225 1002 tokyo main 1884 1883 OOOO__________ jtwc_wp WP141993 14.7000 148.300 40 0 14.7000 148.200 2 1002 0 0 0 14.7000 148.200 1 29 1002 14.7000 148.200 TD 30 1000 9 296
1993215N08154 1993 47 WP MM STEVE 1993-08-07 09:00:00 TS 14.9018 147.826 main 1904 1904 PPPP__________ WP141993 14.8350 147.858 40 0 14.9648 147.815 2 1001 0 0 14.9648 147.815 1 29 1001 14.8424 147.815 TD 30 1000 9 297
1993215N08154 1993 47 WP MM STEVE 1993-08-07 12:00:00 TS 15.1000 147.400 1000 tokyo main 1926 1926 OOOO__________ jtwc_wp WP141993 15.0000 147.400 40 0 15.2000 147.400 2 1000 0 0 0 15.2000 147.400 1 29 1000 15.0000 147.400 TD 30 1000 10 294
1993215N08154 1993 47 WP MM STEVE 1993-08-07 15:00:00 TS 15.2813 146.925 main 1949 1949 PPPP__________ WP141993 15.1574 146.950 42 0 15.3801 146.900 2 1000 0 0 15.3801 146.893 1 29 1000 15.2075 146.958 TD 30 1000 10 290
1993215N08154 1993 47 WP MM STEVE 1993-08-07 18:00:00 TS 15.4250 146.450 1000 tokyo main 1960 1960 OOOO__________ jtwc_wp WP141993 15.3000 146.500 45 0 15.5000 146.400 2 1000 0 0 0 15.5000 146.400 1 29 1000 15.4000 146.500 TD 30 1000 9 286
1993215N08154 1993 47 WP MM STEVE 1993-08-07 21:00:00 TS 15.5242 146.032 main 1972 1972 PPPP__________ WP141993 15.4224 146.050 45 0 15.5723 145.985 2 998 0 0 15.5722 146.042 1 29 998 15.5299 146.050 TD 30 1000 8 281
1993215N08154 1993 47 WP MM STEVE 1993-08-08 00:00:00 TS 15.5750 145.625 35 996 tokyo main 1985 1985 OOOO__________ jtwc_wp WP141993 15.5000 145.600 45 0 15.6000 145.600 3 35 996 0 9 40 40 0 15.6000 145.700 1 29 996 15.6000 145.600 TD 30 1000 8 275
1993215N08154 1993 47 WP MM STEVE 1993-08-08 03:00:00 TS 15.5880 145.195 main 1988 1988 PPPP__________ WP141993 15.5224 145.157 47 0 15.6073 145.215 3 37 994 0 9 40 40 15.6075 145.257 1 33 994 15.6149 145.150 TD 32 997 8 270
1993215N08154 1993 47 WP MM STEVE 1993-08-08 06:00:00 TS 15.5750 144.750 40 992 tokyo main 1992 1992 OOOO__________ jtwc_wp WP141993 15.5000 144.700 50 0 15.6000 144.800 3 40 992 0 9 40 40 0 15.6000 144.800 2 38 992 15.6000 144.700 TS 35 995 9 268
1993215N08154 1993 47 WP MM STEVE 1993-08-08 09:00:00 TS 15.5605 144.293 main 1998 1998 PPPP__________ WP141993 15.4500 144.200 50 0 15.6000 144.308 3 42 991 0 9 55 55 15.5997 144.415 2 38 992 15.5924 144.250 TS 35 995 9 268
1993215N08154 1993 47 WP MM STEVE 1993-08-08 12:00:00 TS 15.5500 143.825 45 990 tokyo main 2006 1967 OOOO__________ jtwc_wp WP141993 15.4000 143.700 50 0 15.6000 143.800 3 45 990 0 9 70 70 0 15.6000 144.000 2 38 992 15.6000 143.800 TS 35 995 9 269
1993215N08154 1993 47 WP MM STEVE 1993-08-08 15:00:00 TS 15.5474 143.348 main 1957 1916 PPPP__________ WP141993 15.3774 143.242 52 0 15.5849 143.342 3 45 990 0 9 80 80 15.5926 143.457 2 43 991 15.6349 143.350 TS 37 992 9 272
1993215N08154 1993 47 WP MM STEVE 1993-08-08 18:00:00 TS 15.5750 142.875 45 990 tokyo main 1916 1863 OOOO__________ jtwc_wp WP141993 15.4000 142.800 55 0 15.6000 142.900 3 45 990 0 9 90 90 0 15.6000 142.900 3 48 990 15.7000 142.900 TS 40 990 9 276
1993215N08154 1993 47 WP MM STEVE 1993-08-08 21:00:00 TS 15.6399 142.423 main 1863 1823 PPPP__________ WP141993 15.4850 142.343 55 0 15.6699 142.457 3 47 987 0 9 100 100 15.6123 142.442 3 48 987 15.7924 142.450 TS 40 990 9 281
1993215N08154 1993 47 WP MM STEVE 1993-08-09 00:00:00 TS 15.7500 141.975 50 985 tokyo main 1825 1775 OOOO__________ jtwc_wp WP141993 15.6000 141.900 55 0 15.8000 142.000 4 50 985 0 9 110 110 0 15.7000 142.000 3 48 985 15.9000 142.000 TS 40 990 9 287
1993215N08154 1993 47 WP MM STEVE 1993-08-09 03:00:00 TS 15.9124 141.514 main 1775 1737 PPPP__________ WP141993 15.7074 141.492 57 0 15.9999 141.508 4 50 985 0 9 110 110 15.9424 141.508 3 48 985 15.9999 141.550 TS 40 990 9 290
1993215N08154 1993 47 WP MM STEVE 1993-08-09 06:00:00 TS 16.0750 141.050 50 985 tokyo main 1737 1688 OOOO__________ jtwc_wp WP141993 15.8000 141.100 60 0 16.2000 141.000 4 50 985 0 9 110 110 0 16.2000 141.000 3 48 985 16.1000 141.100 TS 40 990 9 287
1993215N08154 1993 47 WP MM STEVE 1993-08-09 09:00:00 TS 16.1812 140.578 main 1688 1636 PPPP__________ WP141993 15.8574 140.700 60 0 16.3300 140.485 4 50 985 0 9 110 110 16.3375 140.485 3 48 985 16.1999 140.642 TS 40 990 9 281
1993215N08154 1993 47 WP MM STEVE 1993-08-09 12:00:00 TS 16.2500 140.125 50 985 tokyo main 1639 1597 OOOO__________ jtwc_wp WP141993 15.9000 140.300 60 0 16.4000 140.000 4 50 985 0 9 110 110 0 16.4000 140.000 3 48 985 16.3000 140.200 TS 40 990 8 278
1993215N08154 1993 47 WP MM STEVE 1993-08-09 15:00:00 TS 16.2911 139.710 main 1597 1556 PPPP__________ WP141993 15.9349 139.907 60 0 16.4149 139.570 4 50 985 0 9 110 110 16.4149 139.570 3 48 985 16.3999 139.792 TS 42 987 8 276
1993215N08154 1993 47 WP MM STEVE 1993-08-09 18:00:00 TS 16.3250 139.325 50 985 tokyo main 1556 1528 OOOO__________ jtwc_wp WP141993 16.0000 139.500 60 0 16.4000 139.200 4 50 985 0 9 110 110 0 16.4000 139.200 3 48 985 16.5000 139.400 TS 45 985 7 276
1993215N08154 1993 47 WP MM STEVE 1993-08-09 21:00:00 TS 16.3668 138.964 main 1528 1487 PPPP__________ WP141993 16.1275 139.057 60 0 16.3773 138.900 4 52 982 0 9 120 120 16.3698 138.900 3 53 982 16.5924 139.000 TS 45 985 7 280
1993215N08154 1993 47 WP MM STEVE 1993-08-10 00:00:00 TS 16.4500 138.600 55 980 tokyo main 1491 1453 OOOO__________ jtwc_wp WP141993 16.3000 138.600 60 0 16.4000 138.600 4 55 980 9 30 30 9 130 130 0 16.4000 138.600 3 58 980 16.7000 138.600 TS 45 985 8 288
1993215N08154 1993 47 WP MM STEVE 1993-08-10 03:00:00 TS 16.6100 138.193 main 1453 1420 PPPP__________ WP141993 16.4925 138.142 62 0 16.5275 138.215 4 55 980 9 30 30 9 130 130 16.5775 138.215 3 58 980 16.8424 138.200 TS 47 982 9 294
1993215N08154 1993 47 WP MM STEVE 1993-08-10 06:00:00 TS 16.8000 137.775 55 980 tokyo main 1420 1384 OOOO__________ jtwc_wp WP141993 16.7000 137.700 65 1 16.7000 137.800 4 55 980 9 30 30 9 130 130 0 16.8000 137.800 3 58 980 17.0000 137.800 STS 50 980 9 294
1993215N08154 1993 47 WP MM STEVE 1993-08-10 09:00:00 TS 16.9586 137.375 main 1388 1353 PPPP__________ WP141993 16.8924 137.285 65 1 16.8424 137.407 4 55 980 9 30 30 9 130 130 16.9499 137.407 3 58 980 17.1499 137.400 STS 45 985 8 293
1993215N08154 1993 47 WP MM STEVE 1993-08-10 12:00:00 TS 17.1250 136.975 55 980 tokyo main 1353 1323 OOOO__________ jtwc_wp WP141993 17.1000 136.900 65 1 17.0000 137.000 4 55 980 9 30 30 9 130 130 0 17.1000 137.000 3 58 980 17.3000 137.000 TS 40 990 9 294
1993215N08154 1993 47 WP MM STEVE 1993-08-10 15:00:00 TS 17.3081 136.559 main 1323 1293 PPPP__________ WP141993 17.3349 136.542 62 0 17.1775 136.550 4 55 980 9 30 30 9 130 130 17.2850 136.550 3 58 980 17.4350 136.592 TS 40 990 9 297
1993215N08154 1993 47 WP MM STEVE 1993-08-10 18:00:00 TS 17.5250 136.150 55 980 tokyo main 1293 1266 OOOO__________ jtwc_wp WP141993 17.6000 136.200 60 0 17.4000 136.100 4 55 980 9 30 30 9 130 130 0 17.5000 136.100 3 58 980 17.6000 136.200 TS 40 990 9 302
1993215N08154 1993 47 WP MM STEVE 1993-08-10 21:00:00 TS 17.7774 135.760 main 1271 1245 PPPP__________ WP141993 17.8850 135.842 57 0 17.6775 135.677 4 52 982 9 9 115 115 17.7275 135.677 3 58 980 17.8199 135.842 TS 37 992 9 308
1993215N08154 1993 47 WP MM STEVE 1993-08-11 00:00:00 TS 18.0750 135.400 50 985 tokyo main 1250 1235 OOOO__________ jtwc_wp WP141993 18.2000 135.500 55 0 18.0000 135.300 4 50 985 0 9 100 100 0 18.0000 135.300 3 58 980 18.1000 135.500 TS 35 995 9 314
1993215N08154 1993 47 WP MM STEVE 1993-08-11 03:00:00 TS 18.4080 135.084 main 1241 1232 PPPP__________ WP141993 18.5424 135.200 52 0 18.3348 134.992 4 50 985 0 9 100 100 18.3273 134.992 3 53 982 18.4274 135.150 TS 32 997 9 320
1993215N08154 1993 47 WP MM STEVE 1993-08-11 06:00:00 TS 18.7750 134.775 50 985 tokyo main 1237 1218 OOOO__________ jtwc_wp WP141993 18.9000 134.900 50 0 18.7000 134.700 4 50 985 0 9 100 100 0 18.7000 134.700 3 48 985 18.8000 134.800 TD 30 1000 10 320
1993215N08154 1993 47 WP MM STEVE 1993-08-11 09:00:00 TS 19.1512 134.432 main 1219 1208 PPPP__________ WP141993 19.2424 134.565 50 0 19.0850 134.357 4 45 987 0 9 90 90 19.0850 134.357 3 48 985 19.1924 134.450 TD 30 1000 10 320
1993215N08154 1993 47 WP MM STEVE 1993-08-11 12:00:00 TS 19.5500 134.075 40 990 tokyo main 1213 1195 OOOO__________ jtwc_wp WP141993 19.6000 134.200 50 0 19.5000 134.000 3 40 990 0 9 80 80 0 19.5000 134.000 3 48 985 19.6000 134.100 TD 30 1000 11 320
1993215N08154 1993 47 WP MM STEVE 1993-08-11 15:00:00 TS 19.9674 133.718 main 1201 1183 PPPP__________ WP141993 19.9849 133.815 47 0 19.9424 133.650 3 40 992 0 9 70 70 19.9424 133.650 3 43 990 19.9999 133.757 TD 27 1002 11 321
1993215N08154 1993 47 WP MM STEVE 1993-08-11 18:00:00 TS 20.4000 133.350 40 994 tokyo main 1185 1152 OOOO__________ jtwc_wp WP141993 20.4000 133.400 45 0 20.4000 133.300 3 40 994 0 9 60 60 0 20.4000 133.300 2 38 995 20.4000 133.400 TD 25 1005 11 321
1993215N08154 1993 47 WP MM STEVE 1993-08-11 21:00:00 TS 20.8279 132.986 main 1152 1099 PPPP__________ WP141993 20.8348 132.972 42 0 20.8498 132.965 3 40 996 0 9 60 60 20.8497 132.980 2 38 995 20.7773 133.029 TD 25 1005 11 320
1993215N08154 1993 47 WP MM STEVE 1993-08-12 00:00:00 TS 21.2800 132.573 40 998 tokyo main 1099 1048 OOOO__________ jtwc_wp WP141993 21.3000 132.500 40 0 21.3000 132.600 3 40 998 0 9 60 60 0 21.3000 132.600 2 38 995 21.2000 132.600 TD 25 1005 13 318
1993215N08154 1993 47 WP MM STEVE 1993-08-12 03:00:00 TS 21.7644 132.067 main 1036 986 PPPP__________ WP141993 21.8000 131.965 35 0 21.7574 132.172 3 1000 0 9 21.7578 132.058 2 33 997 21.7205 132.079 TD 25 1005 14 315
1993215N08154 1993 47 WP MM STEVE 1993-08-12 06:00:00 TS 22.2385 131.531 1002 tokyo main 986 938 OOOO__________ jtwc_wp WP141993 22.3000 131.400 30 -1 22.2000 131.700 2 1002 0 0 0 22.2000 131.500 1 29 1000 22.3000 131.500 TD 25 1005 13 314
1993215N08154 1993 47 WP MM STEVE 1993-08-12 09:00:00 TS 22.6622 131.052 main 927 893 PPP___________ WP141993 22.7722 130.857 27 -1 22.6074 131.207 2 1003 0 0 22.6071 131.092 1 29 1002 TD 12 313
1993215N08154 1993 47 WP MM STEVE 1993-08-12 12:00:00 TS 23.0667 130.567 1004 tokyo main 882 840 OOO___________ jtwc_wp WP141993 23.2000 130.300 25 -1 23.0000 130.700 2 1004 0 0 0 23.0000 130.700 1 29 1004 12 311
1993215N08154 1993 47 WP MM STEVE 1993-08-12 15:00:00 TS 23.4648 130.051 main 837 770 PPP___________ WP141993 23.5798 129.707 25 -1 23.4072 130.215 2 1004 0 0 23.4073 130.230 1 26 1004 12 308
1993215N08154 1993 47 WP MM STEVE 1993-08-12 18:00:00 TS 23.8333 129.500 1004 tokyo main 770 702 OOO___________ jtwc_wp WP141993 23.9000 129.100 25 -1 23.8000 129.700 2 1004 0 0 0 23.8000 129.700 1 23 1004 13 304
1993215N08154 1993 47 WP MM STEVE 1993-08-12 21:00:00 TS 24.1726 128.892 main 702 638 PPP___________ WP141993 24.1725 128.477 22 -1 24.1726 129.100 2 1004 0 0 24.1726 129.100 1 23 1004 13 300
1993215N08154 1993 47 WP MM STEVE 1993-08-13 00:00:00 TS 24.4667 128.300 1004 tokyo main 638 585 OOO___________ jtwc_wp WP141993 24.4000 127.900 20 -1 24.5000 128.500 2 1004 0 0 0 24.5000 128.500 1 23 1004 11 299
1993215N08154 1993 47 WP MM STEVE 1993-08-13 03:00:00 TS 24.7222 127.794 main 585 544 PPP___________ WP141993 24.6221 127.427 20 -1 24.7722 127.977 2 1004 0 0 24.7722 127.977 1 23 1004 10 298
1993215N08154 1993 47 WP MM STEVE 1993-08-13 06:00:00 TS 24.9333 127.333 1004 tokyo main 534 493 OOO___________ jtwc_wp WP141993 24.8000 127.000 20 -1 25.0000 127.500 2 1004 0 0 0 25.0000 127.500 1 23 1004 9 296
1993215N08154 1993 47 WP MM STEVE 1993-08-13 09:00:00 TS 25.1249 126.866 main 493 453 PPP___________ WP141993 24.9149 126.542 20 -1 25.2300 127.020 2 1005 0 0 25.2299 127.035 1 21 1005 9 292
1993215N08154 1993 47 WP MM STEVE 1993-08-13 12:00:00 TS 25.2667 126.433 1006 tokyo main 443 413 OOO___________ jtwc_wp WP141993 25.0000 126.100 20 -1 25.4000 126.600 2 1006 0 0 0 25.4000 126.600 0 19 1006 8 287
1993215N08154 1993 47 WP MM STEVE 1993-08-13 15:00:00 TS 25.3557 126.047 main 404 374 PPP___________ WP141993 25.1074 125.678 17 -1 25.4798 126.270 2 1006 0 0 25.4798 126.192 0 19 1006 7 281
1993215N08154 1993 47 WP MM STEVE 1993-08-13 18:00:00 TS 25.4000 125.700 1006 tokyo main 374 344 OOO___________ jtwc_wp WP141993 25.2000 125.300 15 -1 25.5000 126.000 2 1006 0 0 0 25.5000 125.800 0 19 1006 6 276
1993215N08154 1993 47 WP MM STEVE 1993-08-13 21:00:00 TS 25.4218 125.378 main 344 314 PPP___________ WP141993 25.2601 124.982 15 -1 25.5026 125.748 2 1006 0 0 25.5028 125.403 0 19 1006 6 273
1993215N08154 1993 47 WP MM STEVE 1993-08-14 00:00:00 TS 25.4333 125.067 1006 tokyo main 314 OOO___________ jtwc_wp WP141993 25.3000 124.700 15 -1 25.5000 125.500 2 1006 0 0 0 25.5000 125.000 0 19 1006 6 272

Digital Typhoon Data and Search

About IBTrACS Database

This database is a web-friendly format of International Best Track Archive for Climate Stewardship (IBTrACS), a global best track data archive curated by NOAA dating back to 1842.

Updated: 2021-12-01